Yang Mei Hu — BQCG — position and weather

sailwx.info

Track history (hours):
 
Tides and Currents Weather Stations Pressure Air Temp Water Temp Dewpoint Dewpoint Depression Visibility Wind Speed Wind Dir Waves Ship Positions

Yang Mei Hu

Last reported at 2014-Sep-25 21:03 UTC. Time now 2014-Oct-01 14:30 UTC.
Position N 44°15' E 034°50'.

Length 245 m; draft 11 m.

Type: Tanker. MMSI: 413858000.

Date/timePositionNaut miles runAvg speedWind from/ knotsBaromVisibWave heightAir tempDewpointWater temp
2014-Sep-25 21:03N 44°15' E 034°50'5 9.3
2014-Sep-25 20:33N 44°15' E 034°44'9 9.2
2014-Sep-25 19:32N 44°15' E 034°31'9 9.3
2014-Sep-25 18:33N 44°15' E 034°18'1010.3
2014-Sep-25 17:33N 44°15' E 034°04'  
2014-Sep-19 05:33N 40°57' E 028°59'9 9.4
2014-Sep-19 04:33N 40°51' E 028°50'6 5.4
2014-Sep-19 03:22N 40°50' E 028°42'  
2014-Sep-16 15:05N 37°45' E 024°34'5 7.9
2014-Sep-16 14:28N 37°40' E 024°32'8 8.0
2014-Sep-16 13:30N 37°34' E 024°27'9 7.9
2014-Sep-16 12:18N 37°26' E 024°19'6 8.1
2014-Sep-16 11:33N 37°21' E 024°14'9 8.3
2014-Sep-16 10:29N 37°15' E 024°07'8 7.8
2014-Sep-16 09:26N 37°08' E 024°02'8 7.8
2014-Sep-16 08:23N 37°01' E 023°56'15 8.0
2014-Sep-16 06:33N 36°50' E 023°44'  
Track history (hours):
 
Tides and Currents Weather Stations Pressure Air Temp Water Temp Dewpoint Dewpoint Depression Visibility Wind Speed Wind Dir Waves Ship Positions

Yang Mei Hu

Last reported at 2014-Sep-25 21:03 UTC. Time now 2014-Oct-01 14:30 UTC.
Position N 44°15' E 034°50'.

Length 245 m; draft 11 m.

Type: Tanker. MMSI: 413858000.

Date/timePositionNaut miles runAvg speedWind from/ knotsBaromVisibWave heightAir tempDewpointWater temp
2014-Sep-25 21:03N 44°15' E 034°50'5 9.3
2014-Sep-25 20:33N 44°15' E 034°44'9 9.2
2014-Sep-25 19:32N 44°15' E 034°31'9 9.3
2014-Sep-25 18:33N 44°15' E 034°18'1010.3
2014-Sep-25 17:33N 44°15' E 034°04'  
2014-Sep-19 05:33N 40°57' E 028°59'9 9.4
2014-Sep-19 04:33N 40°51' E 028°50'6 5.4
2014-Sep-19 03:22N 40°50' E 028°42'  
2014-Sep-16 15:05N 37°45' E 024°34'5 7.9
2014-Sep-16 14:28N 37°40' E 024°32'8 8.0
2014-Sep-16 13:30N 37°34' E 024°27'9 7.9
2014-Sep-16 12:18N 37°26' E 024°19'6 8.1
2014-Sep-16 11:33N 37°21' E 024°14'9 8.3
2014-Sep-16 10:29N 37°15' E 024°07'8 7.8
2014-Sep-16 09:26N 37°08' E 024°02'8 7.8
2014-Sep-16 08:23N 37°01' E 023°56'15 8.0
2014-Sep-16 06:33N 36°50' E 023°44'  

Dump ship's entire track history